x

Hi-a389 Tabs V (42047) Weather Station

1:00pm - Thu 27th Aug 2015 All times are CDT. -5 hours from GMT.

  • Wind
    16mph, 20mph gusts
  • Sea Temp 85°f
  • Sea Pressure 1016.9mb
  • Hi-a389 Tabs V
  • Hi-a389 Tabs V

More Historic Weather Station data

Upgrade to MSW Pro to gain access to the past 30 days of data for over 8000 Wavebouys and Weather Stations around the globe.

Join Pro

Comparision Forecast

View Surf forecast
   
Thu 08/27 1:00pm 16 20 mph 1016.9mb 85f
12:00pm 16 20 mph 1017.8mb 85f
11:00am 16 20 mph 1017.8mb 85f
9:00am 13 18 mph 1017.1mb 85f
8:00am 13 18 mph 1016.8mb 85f
6:00am 9 16 mph 1016.1mb 85f
5:00am 11 13 mph 1016.2mb 85f
4:00am 11 13 mph 1016.1mb 85f
3:00am 11 13 mph 1015.6mb 85f
2:00am 11 13 mph 1015.9mb 85f
1:00am 11 13 mph 1016.5mb 85f
12:00am 11 16 mph 1017mb 85f
Wed 08/26 11:00pm 16 18 mph 1017.3mb 85f
6:00pm 11 16 mph 1016.6mb 86f
5:00pm 13 16 mph 1016.9mb 86f
4:00pm 11 16 mph 1017.3mb 86f
3:00pm 13 16 mph 1017.4mb 86f
2:00pm 13 18 mph 1018mb 86f
1:00pm 13 16 mph 1018.6mb 85f
12:00pm 11 13 mph 1018.7mb 85f
11:00am 13 16 mph 1018.8mb 85f
10:00am 13 18 mph 1018.6mb 85f
9:00am 16 18 mph 1017.8mb 85f
8:00am 16 18 mph 1017.3mb 85f
7:00am 11 16 mph 1016.7mb 85f
6:00am 13 16 mph 1016.2mb 85f
4:00am 13 16 mph 1015.7mb 85f
2:00am 13 16 mph 1015.4mb 85f
1:00am 13 16 mph 1015.6mb 85f
Tue 08/25 11:00pm 11 16 mph 1016.2mb 86f
6:00pm 38 45 mph 1017mb 86f
5:00pm 11 16 mph 1015.9mb 86f
4:00pm 7 11 mph 1015.5mb 86f
3:00pm 9 11 mph 1016mb 86f
2:00pm 22 25 mph 1017.3mb 86f
1:00pm 9 11 mph 1017.8mb 86f
12:00pm 11 13 mph 1017.9mb 86f
11:00am 9 11 mph 1017.9mb 86f
10:00am 9
mph
1017.9mb 86f
9:00am 7 9 mph 1017.4mb 86f
7:00am 7 9 mph 1016.4mb 86f
6:00am 4 7 mph 1016mb 86f
5:00am  -  2 mph 1015.7mb 86f
4:00am 7 9 mph 1015.5mb 86f
2:00am 7 11 mph 1015.9mb 87f
12:00am 4
mph
1016.5mb 86f
Mon 08/24 6:00pm 4 7 mph 1015.8mb 87f
5:00pm 7 9 mph 1016mb 87f
3:00pm 9 11 mph 1016.7mb 87f
2:00pm 9 11 mph 1017.4mb 87f
11:00am 7 9 mph 1018.3mb 86f
10:00am 4 7 mph 1018.1mb 86f
9:00am 4 7 mph 1017.8mb 86f
8:00am 4 7 mph 1017.8mb 86f
7:00am 4
mph
1017.5mb 86f
5:00am  -  2 mph 1016.9mb 86f
4:00am 4 7 mph 1016.8mb 86f
3:00am  -  mph 1016.8mb 86f
2:00am 4 7 mph 1016.8mb 86f
1:00am 4 7 mph 1016.8mb 86f
12:00am 7 9 mph 1016.6mb 86f
Sun 08/23 11:00pm 7
mph
1016.7mb 86f